Time;durP1;ratioP1;P1;durP2;ratioP2;P2;SDS_P1;SDS_P2;PMS_P1;PMS_P2;Temp;Humidity;BMP_temperature;BMP_pressure;BME280_temperature;BME280_humidity;BME280_pressure;Samples;Min_cycle;Max_cycle;Signal;HPM_P1;HPM_P2
2022/02/21 00:00:25;;;;;;;8.25;4.00;;;;;;;;;;356759;147;856230;-60
2022/02/21 00:01:27;;;;;;;8.07;3.37;;;;;;;;;;355710;147;856228;-60
2022/02/21 00:02:29;;;;;;;7.84;3.74;;;;;;;;;;356577;147;856258;-60
2022/02/21 00:03:30;;;;;;;6.89;3.75;;;;;;;;;;354929;148;864547;-60
2022/02/21 00:04:32;;;;;;;5.51;3.26;;;;;;;;;;349398;149;856695;-60
2022/02/21 00:05:34;;;;;;;6.57;3.51;;;;;;;;;;351326;148;856473;-59
2022/02/21 00:06:36;;;;;;;7.03;3.40;;;;;;;;;;351043;150;863561;-60
2022/02/21 00:07:37;;;;;;;7.18;3.50;;;;;;;;;;351037;152;856070;-60
2022/02/21 00:08:39;;;;;;;6.82;3.40;;;;;;;;;;350246;150;864066;-60
2022/02/21 00:09:41;;;;;;;8.46;3.74;;;;;;;;;;351651;148;863616;-60
2022/02/21 00:10:42;;;;;;;5.94;3.54;;;;;;;;;;351431;150;856037;-60
2022/02/21 00:11:44;;;;;;;7.64;3.74;;;;;;;;;;343817;151;864968;-60
2022/02/21 00:12:45;;;;;;;7.44;3.79;;;;;;;;;;343128;152;864201;-60
2022/02/21 00:15:30;;;;;;;5.13;2.97;;;;;;;3.90;62.09;99109.68;402480;130;862018;-59
2022/02/21 00:16:32;;;;;;;8.24;3.44;;;;;;;;;;394259;134;859253;-59
2022/02/21 00:17:33;;;;;;;7.49;3.28;;;;;;;;;;385912;136;857029;-60
2022/02/21 00:18:35;;;;;;;6.06;3.39;;;;;;;;;;392335;134;857307;-60
2022/02/21 00:19:36;;;;;;;8.64;3.56;;;;;;;;;;394876;134;865295;-60
2022/02/21 00:20:38;;;;;;;8.44;3.91;;;;;;;;;;395176;135;865112;-59
2022/02/21 00:21:39;;;;;;;7.49;3.99;;;;;;;;;;394981;134;857196;-60
2022/02/21 00:22:41;;;;;;;9.14;3.79;;;;;;;;;;395386;134;857214;-58
2022/02/21 00:23:43;;;;;;;8.26;4.14;;;;;;;;;;393752;134;857226;-60
2022/02/21 00:24:45;;;;;;;8.43;3.78;;;;;;;;;;394666;135;857823;-59
2022/02/21 00:25:46;;;;;;;8.90;3.38;;;;;;;;;;395465;134;856215;-59
2022/02/21 00:26:48;;;;;;;9.51;3.80;;;;;;;;;;387289;136;857059;-59
2022/02/21 00:27:50;;;;;;;6.29;3.55;;;;;;;;;;393589;135;856126;-59
2022/02/21 00:28:51;;;;;;;11.92;4.40;;;;;;;;;;394908;134;856062;-59
2022/02/21 00:29:53;;;;;;;5.97;3.39;;;;;;;;;;393889;134;863877;-60
2022/02/21 00:30:54;;;;;;;6.50;3.41;;;;;;;;;;393011;135;856996;-60
2022/02/21 00:31:56;;;;;;;6.88;3.47;;;;;;;;;;393527;135;856212;-58
2022/02/21 00:32:57;;;;;;;6.66;3.47;;;;;;;;;;390112;134;856239;-60
2022/02/21 00:33:59;;;;;;;6.27;3.34;;;;;;;;;;386600;134;856123;-60
2022/02/21 00:35:00;;;;;;;7.38;3.74;;;;;;;;;;385597;135;863652;-59
2022/02/21 00:36:02;;;;;;;8.66;3.96;;;;;;;;;;384518;135;857220;-59
2022/02/21 00:37:04;;;;;;;8.51;4.08;;;;;;;;;;386909;135;857305;-59
2022/02/21 00:38:05;;;;;;;12.51;4.19;;;;;;;;;;385580;135;863659;-59
2022/02/21 00:39:07;;;;;;;8.27;3.93;;;;;;;;;;383974;137;863837;-59
2022/02/21 00:40:09;;;;;;;9.73;4.45;;;;;;;;;;384712;134;856106;-59
2022/02/21 00:41:11;;;;;;;7.08;3.69;;;;;;;;;;385222;135;856092;-60
2022/02/21 00:42:13;;;;;;;8.91;3.57;;;;;;;;;;384341;134;856659;-60
2022/02/21 00:43:14;;;;;;;7.35;4.02;;;;;;;;;;385555;135;859982;-60
2022/02/21 00:44:16;;;;;;;8.56;4.51;;;;;;;;;;385325;135;863801;-59
2022/02/21 00:45:17;;;;;;;6.19;3.69;;;;;;;;;;386652;134;864468;-60
2022/02/21 00:46:19;;;;;;;6.86;3.91;;;;;;;;;;385405;134;859087;-60
2022/02/21 00:47:22;;;;;;;9.44;4.21;;;;;;;;;;384990;135;857054;-60
2022/02/21 00:48:24;;;;;;;9.18;4.87;;;;;;;;;;383639;134;863780;-60
2022/02/21 00:49:26;;;;;;;7.84;4.41;;;;;;;;;;385050;134;856227;-60
2022/02/21 00:50:28;;;;;;;7.71;4.29;;;;;;;;;;387038;135;856981;-60
2022/02/21 00:51:29;;;;;;;8.57;4.58;;;;;;;;;;384814;136;856026;-61
2022/02/21 00:52:31;;;;;;;8.72;4.66;;;;;;;;;;387095;135;856597;-60
2022/02/21 00:53:32;;;;;;;10.25;4.97;;;;;;;;;;387702;135;856664;-60
2022/02/21 00:54:34;;;;;;;9.08;4.81;;;;;;;;;;385308;135;856008;-59
2022/02/21 00:55:35;;;;;;;7.16;4.64;;;;;;;;;;386479;134;856610;-59
2022/02/21 00:56:37;;;;;;;11.90;4.39;;;;;;;;;;384892;135;863639;-59
2022/02/21 00:57:38;;;;;;;8.84;4.65;;;;;;;;;;384839;135;856057;-59
2022/02/21 00:58:40;;;;;;;10.89;5.01;;;;;;;;;;384009;136;857843;-60
2022/02/21 00:59:43;;;;;;;9.59;5.07;;;;;;;;;;386498;135;857532;-59
2022/02/21 01:00:45;;;;;;;9.05;5.03;;;;;;;;;;386925;135;856334;-59
2022/02/21 01:01:46;;;;;;;9.99;4.84;;;;;;;;;;386180;135;856201;-60
2022/02/21 01:02:48;;;;;;;9.41;4.71;;;;;;;;;;386878;135;864778;-60
2022/02/21 01:03:49;;;;;;;9.17;4.59;;;;;;;;;;385549;136;858533;-60
2022/02/21 01:04:51;;;;;;;8.86;5.04;;;;;;;;;;385993;135;857275;-60
2022/02/21 01:05:52;;;;;;;8.21;4.59;;;;;;;;;;384956;135;858703;-61
2022/02/21 01:06:55;;;;;;;9.06;4.76;;;;;;;;;;385859;134;858781;-60
2022/02/21 01:07:57;;;;;;;9.75;4.85;;;;;;;;;;386385;134;863835;-60
2022/02/21 01:08:58;;;;;;;11.47;4.67;;;;;;;;;;384733;135;856619;-60
2022/02/21 01:10:00;;;;;;;6.54;4.31;;;;;;;;;;385818;138;863675;-59
2022/02/21 01:11:01;;;;;;;8.55;4.77;;;;;;;;;;383779;135;863727;-59
2022/02/21 01:12:03;;;;;;;9.59;4.81;;;;;;;;;;385114;136;856847;-59
2022/02/21 01:13:05;;;;;;;9.71;4.86;;;;;;;;;;385211;135;856072;-59
2022/02/21 01:14:06;;;;;;;9.11;4.62;;;;;;;;;;384945;137;863842;-60
2022/02/21 01:15:08;;;;;;;10.42;4.56;;;;;;;;;;387098;135;856471;-60
2022/02/21 01:16:10;;;;;;;11.13;5.16;;;;;;;;;;385536;134;857385;-60
2022/02/21 01:17:12;;;;;;;8.84;5.16;;;;;;;;;;387571;135;856116;-60
2022/02/21 01:18:13;;;;;;;9.41;4.50;;;;;;;;;;387351;134;856332;-59
2022/02/21 01:19:15;;;;;;;7.75;4.59;;;;;;;;;;377604;137;856673;-60
2022/02/21 01:20:17;;;;;;;12.32;5.36;;;;;;;;;;373534;143;856152;-59
2022/02/21 01:21:19;;;;;;;9.04;5.14;;;;;;;;;;377631;137;856281;-59
2022/02/21 01:22:20;;;;;;;14.37;5.38;;;;;;;;;;384899;134;863797;-59
2022/02/21 01:23:22;;;;;;;12.31;5.45;;;;;;;;;;384288;136;856580;-59
2022/02/21 01:24:24;;;;;;;12.14;5.92;;;;;;;;;;384447;135;864554;-60
2022/02/21 01:25:25;;;;;;;12.47;5.67;;;;;;;;;;385041;134;863987;-59
2022/02/21 01:26:27;;;;;;;11.78;5.69;;;;;;;;;;385514;135;863927;-59
2022/02/21 01:27:29;;;;;;;13.94;6.14;;;;;;;;;;385072;135;856097;-60
2022/02/21 01:28:30;;;;;;;18.29;7.81;;;;;;;;;;385374;134;858723;-59
2022/02/21 01:29:32;;;;;;;38.72;13.65;;;;;;;;;;386515;135;856433;-59
2022/02/21 01:30:34;;;;;;;47.59;16.52;;;;;;;;;;385642;135;856956;-59
2022/02/21 01:31:35;;;;;;;45.44;15.52;;;;;;;;;;387302;134;856250;-59
2022/02/21 01:32:37;;;;;;;35.46;12.68;;;;;;;;;;385514;135;856384;-60
2022/02/21 01:33:38;;;;;;;26.79;10.33;;;;;;;;;;384842;135;862139;-59
2022/02/21 01:34:40;;;;;;;27.94;11.80;;;;;;;;;;385871;134;863574;-59
2022/02/21 01:35:41;;;;;;;21.47;9.04;;;;;;;;;;385411;135;863992;-59
2022/02/21 01:36:43;;;;;;;21.19;9.31;;;;;;;;;;385619;135;858349;-59
2022/02/21 01:37:45;;;;;;;31.11;13.06;;;;;;;;;;386008;134;857006;-59
2022/02/21 01:38:46;;;;;;;41.61;17.97;;;;;;;;;;385908;137;856635;-59
2022/02/21 01:39:48;;;;;;;38.40;17.30;;;;;;;;;;385817;135;863794;-60
2022/02/21 01:40:50;;;;;;;42.49;19.84;;;;;;;;;;384900;134;856537;-59
2022/02/21 01:41:51;;;;;;;80.87;34.36;;;;;;;;;;387713;134;856318;-59
2022/02/21 01:42:53;;;;;;;65.95;32.06;;;;;;;;;;384383;135;857260;-59
2022/02/21 01:44:01;;;;;;;48.44;23.29;;;;;;;;;;383528;135;864281;-60
2022/02/21 01:45:03;;;;;;;31.55;17.79;;;;;;;;;;384717;136;861366;-60
2022/02/21 01:46:05;;;;;;;16.09;9.99;;;;;;;;;;385574;134;856146;-60
2022/02/21 01:47:07;;;;;;;14.62;8.14;;;;;;;;;;384640;134;856052;-59
2022/02/21 01:48:10;;;;;;;11.44;6.71;;;;;;;;;;385601;134;863823;-59
2022/02/21 01:49:11;;;;;;;12.40;5.75;;;;;;;;;;383968;135;856611;-59
2022/02/21 01:50:14;;;;;;;9.85;5.22;;;;;;;;;;383995;134;864037;-59
2022/02/21 01:51:15;;;;;;;9.72;5.06;;;;;;;;;;385037;134;856115;-59
2022/02/21 01:52:17;;;;;;;9.38;4.92;;;;;;;;;;386202;135;856196;-59
2022/02/21 01:53:19;;;;;;;14.67;5.63;;;;;;;;;;384725;135;857257;-59
2022/02/21 01:54:20;;;;;;;9.37;5.26;;;;;;;;;;384271;135;856135;-59
2022/02/21 01:55:22;;;;;;;7.85;4.73;;;;;;;;;;377310;138;861935;-60
2022/02/21 01:56:25;;;;;;;10.68;5.55;;;;;;;;;;384657;136;856300;-60
2022/02/21 01:57:27;;;;;;;9.25;4.61;;;;;;;;;;386101;134;856620;-59
2022/02/21 01:58:28;;;;;;;10.36;4.82;;;;;;;;;;384070;135;863981;-59
2022/02/21 01:59:33;;;;;;;11.46;5.21;;;;;;;;;;384812;137;856478;-60
2022/02/21 02:00:35;;;;;;;7.47;4.34;;;;;;;;;;385781;134;863788;-59
2022/02/21 02:01:37;;;;;;;8.63;4.95;;;;;;;;;;387254;134;864094;-60
2022/02/21 02:02:43;;;;;;;8.41;4.51;;;;;;;;;;385202;134;856036;-59
2022/02/21 02:03:42;;;;;;;8.61;4.58;;;;;;;;;;385524;135;856065;-60
2022/02/21 02:04:44;;;;;;;9.96;4.45;;;;;;;;;;384118;135;856068;-59
2022/02/21 02:05:45;;;;;;;8.71;4.95;;;;;;;;;;385609;135;863916;-60
2022/02/21 02:06:47;;;;;;;8.81;5.44;;;;;;;;;;384172;135;857344;-59
2022/02/21 02:07:49;;;;;;;7.51;4.88;;;;;;;;;;385248;135;863841;-60
2022/02/21 02:08:50;;;;;;;22.71;10.10;;;;;;;;;;385399;135;855986;-60
2022/02/21 02:09:52;;;;;;;61.54;22.24;;;;;;;;;;383592;135;855935;-62
2022/02/21 02:10:54;;;;;;;63.09;23.14;;;;;;;;;;385390;135;856064;-60
2022/02/21 02:11:55;;;;;;;46.71;21.11;;;;;;;;;;384287;135;863659;-60
2022/02/21 02:12:57;;;;;;;42.46;18.89;;;;;;;;;;386284;134;863871;-59
2022/02/21 02:13:58;;;;;;;48.61;21.27;;;;;;;;;;386134;134;863676;-60
2022/02/21 02:15:00;;;;;;;35.70;16.31;;;;;;;;;;384994;135;863728;-59
2022/02/21 02:16:02;;;;;;;36.90;18.17;;;;;;;;;;383373;134;856136;-60
2022/02/21 02:17:05;;;;;;;31.33;15.44;;;;;;;;;;379843;139;856007;-60
2022/02/21 02:18:07;;;;;;;29.08;14.86;;;;;;;;;;380675;137;863951;-59
2022/02/21 02:19:08;;;;;;;21.21;11.14;;;;;;;;;;381664;137;857682;-59
2022/02/21 02:20:10;;;;;;;22.91;11.17;;;;;;;;;;379695;139;856171;-60
2022/02/21 03:03:02;;;;;;;8.79;4.67;;;;;;;-0.13;79.64;99037.19;370682;142;878083;-59
2022/02/21 03:04:04;;;;;;;10.81;4.40;;;;;;;-0.23;79.61;99041.20;362976;146;856817;-59
2022/02/21 03:05:06;;;;;;;7.54;3.69;;;;;;;-0.23;79.81;99032.73;362548;146;856527;-59
2022/02/21 03:06:08;;;;;;;8.21;3.76;;;;;;;-0.23;79.59;99023.40;362165;147;864581;-59
2022/02/21 03:07:10;;;;;;;7.20;3.76;;;;;;;-0.16;79.66;99037.12;362826;147;864315;-58
2022/02/21 03:08:12;;;;;;;6.51;3.71;;;;;;;-0.07;79.61;99026.25;363306;146;864852;-59
2022/02/21 03:09:13;;;;;;;12.73;5.28;;;;;;;0.03;79.49;99028.19;363771;147;863740;-59
2022/02/21 03:10:15;;;;;;;35.15;11.41;;;;;;;0.16;79.20;99025.87;363636;146;857364;-59
2022/02/21 03:11:17;;;;;;;30.66;11.64;;;;;;;0.29;78.82;99021.03;363439;146;864176;-60
2022/02/21 03:12:18;;;;;;;20.29;8.39;;;;;;;;;;362276;147;864177;-60
2022/02/21 03:13:20;;;;;;;21.35;7.79;;;;;;;;;;362172;147;864035;-60
2022/02/21 03:14:22;;;;;;;17.16;7.76;;;;;;;;;;361000;147;856531;-60
2022/02/21 03:15:23;;;;;;;14.06;6.63;;;;;;;;;;360827;147;856512;-60
2022/02/21 03:16:26;;;;;;;16.57;5.92;;;;;;;;;;360481;147;862403;-60
2022/02/21 03:17:27;;;;;;;12.77;5.52;;;;;;;;;;360201;147;864186;-60
2022/02/21 03:18:29;;;;;;;10.91;4.91;;;;;;;;;;361415;147;856367;-60
2022/02/21 03:19:30;;;;;;;12.64;5.52;;;;;;;;;;360293;148;864067;-60
2022/02/21 03:20:32;;;;;;;12.86;6.02;;;;;;;;;;360964;145;857527;-59
2022/02/21 03:21:34;;;;;;;14.63;6.11;;;;;;;;;;362086;147;863832;-59
2022/02/21 03:34:32;;;;;;;7.18;4.64;;;;;;;1.40;73.12;98997.34;368961;141;881019;-60
2022/02/21 03:35:33;;;;;;;8.15;4.25;;;;;;;1.31;73.11;98998.05;363644;144;856136;-59
2022/02/21 03:36:35;;;;;;;7.42;3.90;;;;;;;1.34;73.27;98999.80;363662;144;856866;-59
2022/02/21 03:37:37;;;;;;;10.89;5.85;;;;;;;1.32;72.83;98994.66;364077;144;856657;-60
2022/02/21 03:38:38;;;;;;;9.29;5.76;;;;;;;;;;362661;144;863835;-59
2022/02/21 03:39:40;;;;;;;11.36;5.63;;;;;;;;;;363908;145;863826;-60
2022/02/21 03:40:42;;;;;;;6.74;3.83;;;;;;;;;;363678;144;858066;-59
2022/02/21 03:41:44;;;;;;;7.85;3.77;;;;;;;;;;362800;144;858740;-59
2022/02/21 03:42:45;;;;;;;6.78;4.44;;;;;;;;;;363590;144;856400;-59
2022/02/21 03:43:47;;;;;;;6.94;4.04;;;;;;;;;;363576;145;856765;-60
2022/02/21 03:44:48;;;;;;;7.46;4.34;;;;;;;;;;362893;145;856424;-60
2022/02/21 03:45:50;;;;;;;7.74;3.86;;;;;;;;;;364280;144;864506;-60
2022/02/21 03:46:52;;;;;;;8.29;4.21;;;;;;;;;;364441;144;864441;-62
2022/02/21 03:47:53;;;;;;;8.53;4.07;;;;;;;;;;363462;144;856517;-60
2022/02/21 03:48:55;;;;;;;9.54;4.55;;;;;;;;;;362576;144;856285;-60
2022/02/21 03:49:56;;;;;;;6.59;4.39;;;;;;;;;;363214;144;864606;-60
2022/02/21 03:50:58;;;;;;;9.99;4.71;;;;;;;;;;363707;144;863761;-60
2022/02/21 03:52:00;;;;;;;9.14;4.75;;;;;;;;;;364545;144;863725;-59
2022/02/21 03:53:01;;;;;;;7.94;4.41;;;;;;;;;;361322;144;856843;-59
2022/02/21 03:54:05;;;;;;;7.67;4.22;;;;;;;;;;356372;147;864199;-59
2022/02/21 03:55:06;;;;;;;8.29;4.61;;;;;;;;;;359195;147;857390;-59
2022/02/21 03:56:09;;;;;;;9.85;4.51;;;;;;;;;;358689;147;856548;-59
2022/02/21 03:57:10;;;;;;;7.93;4.30;;;;;;;;;;358161;147;856916;-59
2022/02/21 03:58:12;;;;;;;7.99;4.40;;;;;;;;;;358916;147;856176;-60
2022/02/21 03:59:13;;;;;;;7.19;4.44;;;;;;;;;;357774;147;863921;-60
2022/02/21 04:00:18;;;;;;;8.39;4.72;;;;;;;;;;357767;147;863909;-60
2022/02/21 04:01:20;;;;;;;7.57;4.91;;;;;;;;;;357447;147;856947;-60
2022/02/21 04:02:21;;;;;;;8.91;5.21;;;;;;;;;;357012;147;856378;-59
2022/02/21 04:03:23;;;;;;;6.64;4.54;;;;;;;;;;357976;147;856917;-60
2022/02/21 04:04:24;;;;;;;10.03;4.39;;;;;;;;;;357701;147;856407;-60
2022/02/21 04:05:26;;;;;;;8.39;4.75;;;;;;;;;;357265;148;856312;-59
2022/02/21 04:06:27;;;;;;;7.30;4.46;;;;;;;;;;358984;147;858313;-60
2022/02/21 04:07:29;;;;;;;7.20;4.18;;;;;;;;;;358230;147;859107;-60
2022/02/21 04:08:31;;;;;;;7.39;4.43;;;;;;;;;;358361;147;856683;-60
2022/02/21 04:09:33;;;;;;;8.34;4.39;;;;;;;;;;358556;147;864024;-60
2022/02/21 04:10:34;;;;;;;9.75;4.27;;;;;;;;;;357738;147;863957;-60
2022/02/21 04:11:36;;;;;;;7.04;4.14;;;;;;;;;;358309;147;863968;-60
2022/02/21 04:12:37;;;;;;;9.90;4.90;;;;;;;;;;358626;147;856069;-60
2022/02/21 04:13:39;;;;;;;9.11;4.88;;;;;;;;;;358496;147;856310;-60
2022/02/21 04:14:41;;;;;;;10.30;4.51;;;;;;;;;;359363;147;856795;-60
2022/02/21 04:15:42;;;;;;;6.64;3.82;;;;;;;;;;358023;147;864222;-60
2022/02/21 04:16:44;;;;;;;8.15;4.80;;;;;;;;;;357955;147;857444;-60
2022/02/21 04:17:46;;;;;;;6.29;4.33;;;;;;;;;;358994;147;856373;-60
2022/02/21 04:18:47;;;;;;;9.41;5.00;;;;;;;;;;358240;147;864525;-60
2022/02/21 04:19:49;;;;;;;12.19;5.12;;;;;;;;;;358077;147;856714;-60
2022/02/21 04:20:51;;;;;;;10.69;5.36;;;;;;;;;;358458;147;864051;-60
2022/02/21 04:21:53;;;;;;;9.55;4.93;;;;;;;;;;351904;150;858807;-59
2022/02/21 04:22:54;;;;;;;7.13;4.35;;;;;;;;;;351424;148;856288;-59
2022/02/21 04:23:56;;;;;;;6.12;4.29;;;;;;;;;;359227;147;856423;-60
2022/02/21 04:24:57;;;;;;;7.39;4.92;;;;;;;;;;358933;147;856400;-60
2022/02/21 04:25:59;;;;;;;9.19;5.26;;;;;;;;;;357819;147;856392;-59
2022/02/21 04:27:01;;;;;;;8.04;4.64;;;;;;;;;;358301;147;856446;-59
2022/02/21 04:28:02;;;;;;;9.42;4.60;;;;;;;;;;358428;147;864157;-59
2022/02/21 04:29:04;;;;;;;7.52;4.48;;;;;;;;;;358726;148;856634;-59
2022/02/21 04:30:06;;;;;;;6.97;4.63;;;;;;;;;;358749;147;863838;-59
2022/02/21 04:31:08;;;;;;;8.72;4.85;;;;;;;;;;357081;147;856221;-59
2022/02/21 04:32:09;;;;;;;9.27;4.91;;;;;;;;;;358085;147;856605;-59
2022/02/21 04:33:11;;;;;;;8.91;4.78;;;;;;;;;;357517;147;864658;-59
2022/02/21 04:34:13;;;;;;;7.84;5.08;;;;;;;;;;357524;147;863759;-59
2022/02/21 04:35:15;;;;;;;9.59;5.05;;;;;;;;;;356392;148;856474;-59
2022/02/21 04:36:17;;;;;;;8.23;4.79;;;;;;;;;;356734;148;864733;-59
2022/02/21 04:37:18;;;;;;;9.45;5.43;;;;;;;;;;356710;148;856071;-61
2022/02/21 04:38:20;;;;;;;9.29;5.21;;;;;;;;;;354487;148;856712;-59
2022/02/21 04:39:21;;;;;;;9.22;5.17;;;;;;;;;;355252;148;856703;-60
2022/02/21 04:40:25;;;;;;;8.46;4.66;;;;;;;;;;355738;148;856540;-59
2022/02/21 04:41:27;;;;;;;9.83;5.11;;;;;;;;;;356123;148;857270;-61
2022/02/21 04:42:28;;;;;;;8.22;4.94;;;;;;;;;;355742;148;863877;-59
2022/02/21 04:43:30;;;;;;;11.32;5.12;;;;;;;;;;356271;149;857139;-60
2022/02/21 04:44:32;;;;;;;8.11;4.60;;;;;;;;;;356964;148;858958;-59
2022/02/21 04:45:33;;;;;;;7.70;5.31;;;;;;;;;;356405;148;856394;-58
2022/02/21 04:46:35;;;;;;;6.77;4.56;;;;;;;;;;355399;148;863803;-59
2022/02/21 04:47:36;;;;;;;9.44;4.91;;;;;;;;;;354497;148;856502;-59
2022/02/21 04:48:38;;;;;;;9.38;5.26;;;;;;;;;;355100;148;857021;-59
2022/02/21 04:49:39;;;;;;;11.41;5.64;;;;;;;;;;355177;148;856286;-59
2022/02/21 04:50:41;;;;;;;9.27;5.26;;;;;;;;;;355145;148;856237;-59
2022/02/21 04:51:42;;;;;;;11.09;5.59;;;;;;;;;;355653;148;856950;-60
2022/02/21 04:52:44;;;;;;;11.69;5.89;;;;;;;;;;356339;148;862420;-59
2022/02/21 04:53:46;;;;;;;10.94;5.12;;;;;;;;;;355423;148;864038;-60
2022/02/21 04:54:47;;;;;;;11.59;5.96;;;;;;;;;;352867;148;862068;-59
2022/02/21 04:55:50;;;;;;;11.36;5.95;;;;;;;;;;355108;148;856709;-60
2022/02/21 04:56:51;;;;;;;9.58;5.67;;;;;;;;;;357073;148;863890;-60
2022/02/21 04:57:53;;;;;;;9.96;6.04;;;;;;;;;;356345;148;863964;-60
2022/02/21 04:58:54;;;;;;;9.70;6.05;;;;;;;;;;355265;149;856613;-58
2022/02/21 04:59:56;;;;;;;11.26;5.89;;;;;;;;;;356376;148;856769;-60
2022/02/21 05:00:57;;;;;;;11.24;6.46;;;;;;;;;;355801;148;860809;-60
2022/02/21 05:02:00;;;;;;;11.06;5.69;;;;;;;;;;346495;151;863874;-60
2022/02/21 05:03:02;;;;;;;11.10;5.86;;;;;;;;;;349075;151;856187;-60
2022/02/21 05:04:03;;;;;;;14.47;6.89;;;;;;;;;;342210;154;856080;-59
2022/02/21 05:05:07;;;;;;;11.86;6.87;;;;;;;;;;342553;155;858938;-59
2022/02/21 05:06:10;;;;;;;11.51;6.17;;;;;;;;;;348740;151;863879;-59
2022/02/21 05:07:11;;;;;;;9.49;6.49;;;;;;;;;;349373;151;863847;-59
2022/02/21 05:08:13;;;;;;;10.21;6.56;;;;;;;;;;342515;154;863802;-59
2022/02/21 05:09:14;;;;;;;11.37;6.36;;;;;;;;;;342422;154;857699;-59
2022/02/21 05:10:17;;;;;;;13.89;7.31;;;;;;;;;;342501;154;856811;-60
2022/02/21 05:11:18;;;;;;;9.75;6.36;;;;;;;;;;342536;154;860918;-60
2022/02/21 05:12:20;;;;;;;14.41;7.04;;;;;;;;;;341347;155;856218;-60
2022/02/21 05:13:21;;;;;;;12.40;6.63;;;;;;;;;;348774;151;856625;-60
2022/02/21 05:14:24;;;;;;;11.73;6.76;;;;;;;;;;349185;151;856596;-59
2022/02/21 05:15:26;;;;;;;11.55;6.29;;;;;;;;;;343980;154;856793;-60
2022/02/21 05:16:28;;;;;;;13.09;6.84;;;;;;;;;;340420;155;856362;-59
2022/02/21 05:17:29;;;;;;;10.84;6.39;;;;;;;;;;340766;154;864410;-60
2022/02/21 05:18:31;;;;;;;8.84;6.16;;;;;;;;;;340113;154;856078;-60
2022/02/21 05:19:32;;;;;;;13.87;6.05;;;;;;;;;;340868;154;856523;-59
2022/02/21 05:20:34;;;;;;;12.01;6.26;;;;;;;;;;343809;154;860708;-59
2022/02/21 05:21:36;;;;;;;11.29;6.11;;;;;;;;;;347618;153;856146;-60
2022/02/21 05:22:37;;;;;;;10.28;6.22;;;;;;;;;;343259;154;856037;-60
2022/02/21 05:23:39;;;;;;;12.13;6.09;;;;;;;;;;342497;154;863894;-60
2022/02/21 05:24:40;;;;;;;10.08;6.51;;;;;;;;;;344458;154;857200;-59
2022/02/21 05:25:42;;;;;;;12.45;6.98;;;;;;;;;;342300;154;856377;-60
2022/02/21 05:26:43;;;;;;;11.52;7.01;;;;;;;;;;342220;154;856262;-60
2022/02/21 05:27:45;;;;;;;9.48;6.19;;;;;;;;;;348844;151;856635;-60
2022/02/21 05:28:47;;;;;;;11.84;7.06;;;;;;;;;;346905;152;856627;-60
2022/02/21 05:29:48;;;;;;;9.96;6.99;;;;;;;;;;347051;152;856790;-61
2022/02/21 05:30:50;;;;;;;10.74;6.64;;;;;;;;;;342273;154;863821;-60
2022/02/21 05:31:51;;;;;;;11.26;6.63;;;;;;;;;;342530;154;864154;-60
2022/02/21 05:34:54;;;;;;;12.88;6.64;;;;;;;1.81;72.62;98894.91;369385;142;867758;-60
2022/02/21 05:35:55;;;;;;;9.51;5.27;;;;;;;1.69;72.57;98895.66;362323;146;856351;-60
2022/02/21 05:36:57;;;;;;;11.19;5.91;;;;;;;1.71;72.65;98893.98;363604;146;856328;-61
2022/02/21 05:37:59;;;;;;;8.46;4.64;;;;;;;;;;363656;146;856521;-60
2022/02/21 05:39:00;;;;;;;7.98;4.70;;;;;;;;;;363167;147;863687;-59
2022/02/21 05:40:03;;;;;;;7.07;4.71;;;;;;;;;;364811;146;856165;-60
2022/02/21 05:41:04;;;;;;;13.10;5.18;;;;;;;;;;364054;146;858086;-59
2022/02/21 05:42:06;;;;;;;10.00;5.45;;;;;;;;;;362344;146;856129;-60
2022/02/21 05:43:08;;;;;;;9.13;4.91;;;;;;;;;;362806;146;856105;-59
2022/02/21 05:44:09;;;;;;;9.41;5.24;;;;;;;;;;363965;146;863795;-59
2022/02/21 05:45:11;;;;;;;11.51;5.49;;;;;;;;;;364575;146;857119;-60
2022/02/21 05:46:13;;;;;;;9.85;5.41;;;;;;;;;;362815;146;856487;-59
2022/02/21 05:47:14;;;;;;;12.19;5.51;;;;;;;;;;362411;147;863969;-59
2022/02/21 05:48:16;;;;;;;11.09;5.74;;;;;;;;;;363722;146;864040;-60
2022/02/21 05:49:17;;;;;;;9.88;5.24;;;;;;;;;;363133;146;856600;-60
2022/02/21 05:50:21;;;;;;;10.82;6.01;;;;;;;;;;361549;145;856451;-60
2022/02/21 05:51:22;;;;;;;9.38;5.65;;;;;;;;;;363192;146;856574;-59
2022/02/21 05:52:24;;;;;;;13.24;6.06;;;;;;;;;;364402;146;864031;-60
2022/02/21 05:53:25;;;;;;;12.05;5.59;;;;;;;;;;357943;146;864012;-59
2022/02/21 05:54:27;;;;;;;10.70;6.55;;;;;;;;;;355695;147;857109;-60
2022/02/21 05:55:28;;;;;;;14.16;6.69;;;;;;;;;;355803;147;856315;-60
2022/02/21 05:56:30;;;;;;;16.69;6.79;;;;;;;;;;356132;149;856907;-61
2022/02/21 07:03:01;;;;;;;8.92;4.61;;;;;;;2.13;69.22;98816.92;370009;142;871670;-56
2022/02/21 07:04:03;;;;;;;10.99;5.43;;;;;;;2.06;68.98;98820.27;363648;145;856635;-56
2022/02/21 07:05:05;;;;;;;7.62;4.96;;;;;;;2.10;69.80;98820.29;363887;145;856460;-55
2022/02/21 07:06:08;;;;;;;8.45;4.39;;;;;;;2.15;69.26;98812.68;363419;144;863964;-57
2022/02/21 07:07:10;;;;;;;13.29;6.41;;;;;;;2.22;68.89;98816.16;362519;146;864544;-55
2022/02/21 07:08:12;;;;;;;14.45;5.06;;;;;;;2.28;68.94;98806.82;362882;146;856293;-57
2022/02/21 07:09:14;;;;;;;8.05;5.35;;;;;;;2.36;68.58;98804.33;364469;144;864498;-56
2022/02/21 07:10:16;;;;;;;12.59;6.36;;;;;;;2.43;67.58;98803.53;363157;146;856810;-58
2022/02/21 07:11:18;;;;;;;8.46;4.69;;;;;;;2.49;67.23;98805.25;357060;149;856519;-59
2022/02/21 07:12:20;;;;;;;10.59;5.23;;;;;;;;;;362705;145;863962;-58
2022/02/21 07:13:21;;;;;;;9.54;5.45;;;;;;;;;;358947;147;857254;-58
2022/02/21 07:14:23;;;;;;;9.71;5.26;;;;;;;;;;359664;147;864180;-61
2022/02/21 07:15:24;;;;;;;9.69;4.54;;;;;;;;;;358461;147;856848;-59
2022/02/21 07:16:28;;;;;;;9.94;5.35;;;;;;;;;;358218;147;864256;-60
2022/02/21 07:17:31;;;;;;;9.78;5.34;;;;;;;;;;358290;147;864483;-58
2022/02/21 07:18:37;;;;;;;7.59;4.86;;;;;;;;;;350777;150;856565;-57
2022/02/21 07:19:36;;;;;;;9.71;5.12;;;;;;;;;;358001;147;857298;-59
2022/02/21 07:20:38;;;;;;;8.86;5.35;;;;;;;;;;358460;147;864087;-60
2022/02/21 07:21:42;;;;;;;9.41;5.53;;;;;;;;;;355946;149;862140;-60
2022/02/21 07:22:44;;;;;;;10.88;5.56;;;;;;;;;;358071;147;856655;-59
2022/02/21 07:23:45;;;;;;;13.13;5.54;;;;;;;;;;357056;147;864189;-59
2022/02/21 07:24:47;;;;;;;9.03;4.76;;;;;;;;;;358583;147;856333;-59
2022/02/21 07:25:48;;;;;;;11.50;5.90;;;;;;;;;;358785;147;862515;-58
2022/02/21 07:26:50;;;;;;;23.41;9.17;;;;;;;;;;342940;153;856486;-60
2022/02/21 07:27:52;;;;;;;25.14;8.34;;;;;;;;;;359378;147;857377;-59
2022/02/21 07:28:54;;;;;;;18.19;8.18;;;;;;;;;;359272;147;856296;-60
2022/02/21 07:29:55;;;;;;;12.77;6.82;;;;;;;;;;358660;147;856154;-58
2022/02/21 07:30:57;;;;;;;15.24;7.57;;;;;;;;;;359269;147;856388;-58
2022/02/21 07:31:58;;;;;;;14.91;7.09;;;;;;;;;;360096;147;856255;-59
2022/02/21 07:33:00;;;;;;;13.88;6.55;;;;;;;;;;358185;147;857408;-57
2022/02/21 07:34:01;;;;;;;11.18;6.11;;;;;;;;;;359004;147;856914;-58
2022/02/21 07:35:03;;;;;;;12.97;7.30;;;;;;;;;;358030;147;863940;-58
2022/02/21 07:36:06;;;;;;;13.33;7.11;;;;;;;;;;358415;147;864786;-60
2022/02/21 07:37:07;;;;;;;12.19;6.14;;;;;;;;;;357699;147;856659;-57
2022/02/21 07:38:09;;;;;;;8.17;4.91;;;;;;;;;;357649;147;864484;-60
2022/02/21 07:39:10;;;;;;;12.25;6.03;;;;;;;;;;359544;147;856815;-56
2022/02/21 07:40:12;;;;;;;11.06;5.95;;;;;;;;;;359142;147;856196;-59
2022/02/21 07:41:14;;;;;;;7.94;5.10;;;;;;;;;;358552;147;863968;-58
2022/02/21 07:42:15;;;;;;;11.24;5.28;;;;;;;;;;356251;147;863945;-58
2022/02/21 07:43:17;;;;;;;9.31;5.16;;;;;;;;;;357668;147;864833;-57
2022/02/21 07:44:18;;;;;;;12.66;5.78;;;;;;;;;;357323;147;860016;-58
2022/02/21 07:45:20;;;;;;;7.35;4.67;;;;;;;;;;358855;147;856852;-60
2022/02/21 07:46:22;;;;;;;8.57;5.20;;;;;;;;;;359059;147;856832;-58
2022/02/21 07:54:51;;;;;;;8.99;4.82;;;;;;;4.68;58.63;98770.66;369954;141;881328;-59
2022/02/21 07:55:53;;;;;;;9.85;4.89;;;;;;;4.64;58.33;98768.96;363818;146;858988;-61
2022/02/21 07:56:54;;;;;;;7.95;4.91;;;;;;;4.69;58.41;98779.22;362835;146;856729;-58
2022/02/21 07:57:59;;;;;;;8.86;4.99;;;;;;;4.71;57.54;98763.81;363346;145;856876;-58
2022/02/21 07:59:01;;;;;;;7.93;4.55;;;;;;;4.74;58.22;98766.37;363098;145;863736;-58
2022/02/21 08:00:04;;;;;;;8.41;4.15;;;;;;;4.79;58.29;98768.08;361928;147;856577;-62
2022/02/21 08:01:05;;;;;;;8.08;4.09;;;;;;;4.89;58.29;98765.48;362976;145;856592;-59
2022/02/21 08:02:07;;;;;;;7.87;3.91;;;;;;;4.83;57.92;98761.23;363621;145;856257;-59
2022/02/21 08:03:09;;;;;;;7.81;4.31;;;;;;;4.93;57.66;98764.60;363852;145;863684;-60